Time;durP1;ratioP1;P1;durP2;ratioP2;P2;SDS_P1;SDS_P2;PMS_P1;PMS_P2;Temp;Humidity;BMP_temperature;BMP_pressure;BME280_temperature;BME280_humidity;BME280_pressure;Samples;Min_cycle;Max_cycle;Signal;HPM_P1;HPM_P2
2021/10/28 00:13:26;;;;;;;17.35;10.20;;;;;;;;;;5007855;28;20213;-72
2021/10/28 00:15:57;;;;;;;18.00;10.32;;;;;;;;;;5018261;28;20194;-72
2021/10/28 00:18:44;;;;;;;19.80;11.25;;;;;;;;;;5010583;28;20259;-72
2021/10/28 00:21:11;;;;;;;16.15;10.23;;;;;;;;;;5010590;28;20186;-72
2021/10/28 00:23:44;;;;;;;25.70;11.57;;;;;;;;;;5007797;28;20209;-72
2021/10/28 00:26:11;;;;;;;14.50;10.52;;;;;;;;;;5021144;28;20213;-72
2021/10/28 00:28:37;;;;;;;18.00;11.13;;;;;;;;;;5012031;28;20227;-72
2021/10/28 00:31:05;;;;;;;15.88;10.88;;;;;;;;;;5023195;28;20209;-72
2021/10/28 00:33:31;;;;;;;15.68;10.30;;;;;;;;;;5018200;28;20185;-72
2021/10/28 00:35:58;;;;;;;17.10;11.48;;;;;;;;;;5011650;28;20222;-71
2021/10/28 00:38:24;;;;;;;20.40;11.25;;;;;;;;;;5020974;28;20287;-71
2021/10/28 00:40:49;;;;;;;15.10;11.35;;;;;;;;;;5013673;28;20584;-72
2021/10/28 00:43:15;;;;;;;16.42;12.02;;;;;;;;;;5018261;28;20705;-71
2021/10/28 00:45:40;;;;;;;18.30;11.68;;;;;;;;;;5013390;28;20283;-72
2021/10/28 00:48:07;;;;;;;22.27;12.35;;;;;;;;;;5021412;28;20673;-71
2021/10/28 00:50:33;;;;;;;17.38;11.52;;;;;;;;;;5013625;28;20198;-71
2021/10/28 00:53:00;;;;;;;16.05;11.27;;;;;;;;;;5017272;28;20728;-71
2021/10/28 00:55:26;;;;;;;18.98;11.82;;;;;;;;;;5012066;28;20190;-72
2021/10/28 00:57:51;;;;;;;20.80;11.50;;;;;;;;;;5019230;28;20221;-71
2021/10/28 01:00:17;;;;;;;20.38;12.02;;;;;;;;;;5013351;28;20198;-71
2021/10/28 01:02:42;;;;;;;13.95;11.10;;;;;;;;;;5019431;28;20312;-72
2021/10/28 01:05:08;;;;;;;19.42;11.25;;;;;;;;;;5020125;28;20274;-72
2021/10/28 01:07:33;;;;;;;16.02;10.27;;;;;;;;;;5008176;28;20201;-71
2021/10/28 01:09:59;;;;;;;18.80;11.02;;;;;;;;;;5022283;28;20269;-71
2021/10/28 01:12:24;;;;;;;19.75;11.57;;;;;;;;;;5010318;28;20202;-71
2021/10/28 01:14:50;;;;;;;20.92;12.30;;;;;;;;;;5019142;28;20347;-72
2021/10/28 01:17:15;;;;;;;18.30;11.68;;;;;;;;;;5011104;28;20228;-71
2021/10/28 01:19:41;;;;;;;19.25;12.40;;;;;;;;;;5020792;28;20194;-72
2021/10/28 01:22:07;;;;;;;17.40;11.13;;;;;;;;;;5010562;28;20182;-71
2021/10/28 01:24:32;;;;;;;20.77;12.70;;;;;;;;;;5020384;28;21117;-71
2021/10/28 01:27:03;;;;;;;23.55;12.40;;;;;;;;;;5012990;28;20525;-72
2021/10/28 01:29:28;;;;;;;19.05;12.50;;;;;;;;;;5017400;28;20189;-72
2021/10/28 01:31:54;;;;;;;17.27;10.85;;;;;;;;;;5011043;28;20201;-72
2021/10/28 01:34:19;;;;;;;17.67;12.33;;;;;;;;;;5021957;28;21139;-72
2021/10/28 01:36:44;;;;;;;19.00;11.80;;;;;;;;;;5020751;28;20261;-72
2021/10/28 01:39:21;;;;;;;22.85;11.93;;;;;;;;;;5010394;28;20626;-72
2021/10/28 01:41:46;;;;;;;23.15;12.07;;;;;;;;;;5020702;28;20996;-73
2021/10/28 01:44:12;;;;;;;20.50;12.98;;;;;;;;;;5009731;28;20260;-72
2021/10/28 01:46:37;;;;;;;22.88;13.80;;;;;;;;;;5021761;28;20289;-72
2021/10/28 01:49:02;;;;;;;22.27;13.52;;;;;;;;;;5006754;28;20551;-72
2021/10/28 01:51:28;;;;;;;21.77;13.00;;;;;;;;;;5018982;28;20238;-72
2021/10/28 01:53:53;;;;;;;23.40;13.60;;;;;;;;;;5010896;28;20256;-72
2021/10/28 01:56:19;;;;;;;21.13;12.70;;;;;;;;;;5019715;28;20194;-72
2021/10/28 01:58:44;;;;;;;27.15;16.85;;;;;;;;;;5011301;28;20735;-72
2021/10/28 02:01:10;;;;;;;23.23;14.75;;;;;;;;;;5020023;28;23229;-72
2021/10/28 02:03:35;;;;;;;25.95;15.75;;;;;;;;;;5010520;28;20190;-72
2021/10/28 02:06:02;;;;;;;28.02;15.88;;;;;;;;;;5019944;28;20202;-71
2021/10/28 02:08:27;;;;;;;27.17;15.98;;;;;;;;;;5017961;28;20201;-72
2021/10/28 02:10:53;;;;;;;29.13;14.88;;;;;;;;;;5011731;28;20309;-72
2021/10/28 02:13:19;;;;;;;28.08;16.38;;;;;;;;;;5018145;28;20335;-72
2021/10/28 02:15:45;;;;;;;27.13;16.40;;;;;;;;;;5012608;28;20566;-72
2021/10/28 02:18:12;;;;;;;33.30;17.45;;;;;;;;;;5014043;28;20183;-72
2021/10/28 02:20:38;;;;;;;24.35;14.43;;;;;;;;;;5006091;28;20621;-72
2021/10/28 02:23:05;;;;;;;31.38;18.13;;;;;;;;;;5019153;28;20189;-72
2021/10/28 02:25:30;;;;;;;28.00;18.55;;;;;;;;;;5009529;28;20272;-72
2021/10/28 02:27:57;;;;;;;30.43;18.90;;;;;;;;;;5018129;28;20251;-72
2021/10/28 02:30:23;;;;;;;28.67;18.73;;;;;;;;;;5010317;28;20178;-72
2021/10/28 02:32:50;;;;;;;32.83;19.33;;;;;;;;;;5019012;28;20343;-72
2021/10/28 02:35:16;;;;;;;24.97;17.20;;;;;;;;;;5008018;28;22297;-72
2021/10/28 02:37:42;;;;;;;31.30;18.60;;;;;;;;;;5018287;28;20178;-72
2021/10/28 02:40:08;;;;;;;35.60;19.23;;;;;;;;;;5016904;28;20197;-72
2021/10/28 02:42:34;;;;;;;37.67;20.23;;;;;;;;;;5009310;28;20186;-72
2021/10/28 02:45:00;;;;;;;27.97;17.70;;;;;;;;;;5018071;28;20210;-72
2021/10/28 02:47:25;;;;;;;36.10;20.07;;;;;;;;;;5009628;28;20213;-71
2021/10/28 02:49:51;;;;;;;37.47;20.23;;;;;;;;;;5017570;28;20314;-72
2021/10/28 02:52:16;;;;;;;33.97;19.17;;;;;;;;;;5009068;28;20189;-72
2021/10/28 02:54:42;;;;;;;37.07;19.03;;;;;;;;;;5017857;28;20200;-72
2021/10/28 02:57:08;;;;;;;35.03;20.03;;;;;;;;;;5008832;28;20212;-72
2021/10/28 02:59:34;;;;;;;37.23;20.90;;;;;;;;;;5015368;28;20213;-72
2021/10/28 03:02:00;;;;;;;37.53;19.00;;;;;;;;;;5010148;28;20186;-71
2021/10/28 03:04:25;;;;;;;34.77;21.60;;;;;;;;;;5016906;28;20193;-72
2021/10/28 03:06:52;;;;;;;39.05;20.42;;;;;;;;;;5009769;28;21453;-72
2021/10/28 03:09:21;;;;;;;40.70;21.80;;;;;;;;;;5016676;28;20653;-72
2021/10/28 03:11:48;;;;;;;32.27;19.70;;;;;;;;;;5018154;28;20182;-72
2021/10/28 03:14:16;;;;;;;38.93;21.63;;;;;;;;;;5006069;28;20190;-72
2021/10/28 03:27:24;;;;;;;36.67;20.57;;;;;;;;;;5013133;28;20221;-73
2021/10/28 03:29:50;;;;;;;45.17;21.43;;;;;;;;;;5004997;28;20622;-72
2021/10/28 03:32:18;;;;;;;43.07;21.20;;;;;;;;;;5018395;28;20518;-72
2021/10/28 03:34:44;;;;;;;43.37;22.17;;;;;;;;;;5009880;28;20271;-73
2021/10/28 03:37:17;;;;;;;41.80;22.10;;;;;;;;;;5014832;28;20223;-72
2021/10/28 03:45:31;;;;;;;40.03;21.00;;;;;;;;;;5008939;28;20619;-72
2021/10/28 03:51:23;;;;;;;38.23;21.07;;;;;;;;;;5008119;28;20221;-73
2021/10/28 03:53:56;;;;;;;46.67;21.60;;;;;;;;;;5018522;28;20286;-72
2021/10/28 03:59:11;;;;;;;39.20;21.60;;;;;;;;;;5018409;28;20197;-72
2021/10/28 04:07:01;;;;;;;45.30;20.70;;;;;;;;;;5010574;28;20389;-72
2021/10/28 04:20:40;;;;;;;43.30;21.07;;;;;;;;;;5018840;28;20252;-72
2021/10/28 04:28:55;;;;;;;46.60;23.37;;;;;;;;;;5021652;28;20637;-72
2021/10/28 04:31:27;;;;;;;46.13;22.70;;;;;;;;;;5012082;28;20170;-72
2021/10/28 04:33:53;;;;;;;47.87;23.53;;;;;;;;;;5020274;28;20186;-72
2021/10/28 04:36:18;;;;;;;50.17;23.67;;;;;;;;;;5020647;28;20189;-72
2021/10/28 04:38:43;;;;;;;52.17;24.00;;;;;;;;;;5011488;28;20680;-72
2021/10/28 04:41:09;;;;;;;46.27;23.43;;;;;;;;;;5020128;28;20200;-73
2021/10/28 04:43:34;;;;;;;52.07;24.13;;;;;;;;;;5011996;28;20183;-72
2021/10/28 04:46:00;;;;;;;49.43;23.73;;;;;;;;;;5023035;28;20688;-72
2021/10/28 04:48:25;;;;;;;56.43;25.03;;;;;;;;;;5012977;28;20251;-72
2021/10/28 04:51:04;;;;;;;55.75;25.02;;;;;;;;;;4780193;28;10000878;-72
2021/10/28 04:53:29;;;;;;;57.57;25.93;;;;;;;;;;5006535;28;20780;-73
2021/10/28 04:55:55;;;;;;;54.90;25.37;;;;;;;;;;5015259;28;20654;-72
2021/10/28 04:58:21;;;;;;;54.73;25.53;;;;;;;;;;5009169;28;20572;-72
2021/10/28 05:00:46;;;;;;;52.73;25.47;;;;;;;;;;5008763;28;20194;-72
2021/10/28 05:03:12;;;;;;;56.90;25.63;;;;;;;;;;5008033;28;20309;-72
2021/10/28 05:05:37;;;;;;;53.87;24.53;;;;;;;;;;5017116;28;20214;-72
2021/10/28 05:08:02;;;;;;;57.87;25.73;;;;;;;;;;5014160;28;20189;-72
2021/10/28 05:10:30;;;;;;;55.33;26.00;;;;;;;;;;5007897;28;20230;-72
2021/10/28 05:12:56;;;;;;;53.63;26.50;;;;;;;;;;5015670;28;20213;-72
2021/10/28 05:15:21;;;;;;;59.33;25.30;;;;;;;;;;5004191;28;20642;-72
2021/10/28 05:17:46;;;;;;;55.57;25.30;;;;;;;;;;5017330;28;21266;-72
2021/10/28 05:20:12;;;;;;;60.30;25.87;;;;;;;;;;4999179;28;20198;-71
2021/10/28 05:22:37;;;;;;;55.03;25.40;;;;;;;;;;5013106;28;20578;-71
2021/10/28 05:25:03;;;;;;;53.97;27.10;;;;;;;;;;5003580;28;20260;-71
2021/10/28 05:27:28;;;;;;;55.20;25.53;;;;;;;;;;5008696;28;20308;-71
2021/10/28 05:29:54;;;;;;;60.70;26.23;;;;;;;;;;5003850;28;20200;-72
2021/10/28 05:32:19;;;;;;;59.33;26.10;;;;;;;;;;5010400;28;20289;-72
2021/10/28 05:34:47;;;;;;;63.33;27.00;;;;;;;;;;5006700;28;21983;-72
2021/10/28 05:37:13;;;;;;;69.90;29.87;;;;;;;;;;5013304;28;20185;-72
2021/10/28 05:39:38;;;;;;;64.10;26.70;;;;;;;;;;5014157;28;20194;-72
2021/10/28 05:42:04;;;;;;;62.33;26.80;;;;;;;;;;5009881;28;20268;-72
2021/10/28 05:44:29;;;;;;;56.40;26.63;;;;;;;;;;5016122;28;20198;-72
2021/10/28 05:46:55;;;;;;;62.23;28.50;;;;;;;;;;5011197;28;20217;-72
2021/10/28 05:49:21;;;;;;;58.77;27.50;;;;;;;;;;5017375;28;20196;-71
2021/10/28 05:51:47;;;;;;;56.37;26.13;;;;;;;;;;5010465;28;20202;-73
2021/10/28 05:54:13;;;;;;;59.20;25.53;;;;;;;;;;5014967;28;20211;-73
2021/10/28 05:56:39;;;;;;;56.50;26.30;;;;;;;;;;5008615;28;20206;-73
2021/10/28 05:59:04;;;;;;;58.80;26.13;;;;;;;;;;5017271;28;20269;-73
2021/10/28 06:01:30;;;;;;;61.83;27.23;;;;;;;;;;5005905;28;20677;-73
2021/10/28 06:03:55;;;;;;;59.30;27.77;;;;;;;;;;5014867;28;20280;-72
2021/10/28 06:06:20;;;;;;;59.47;26.00;;;;;;;;;;5013844;28;20221;-73
2021/10/28 06:08:46;;;;;;;61.20;27.33;;;;;;;;;;5011756;28;20201;-72
2021/10/28 06:11:12;;;;;;;63.93;28.03;;;;;;;;;;5020494;28;20619;-71
2021/10/28 06:13:43;;;;;;;64.90;27.60;;;;;;;;;;5008758;28;20285;-73
2021/10/28 06:16:09;;;;;;;59.30;26.10;;;;;;;;;;5018532;28;20542;-72
2021/10/28 06:18:37;;;;;;;60.20;26.97;;;;;;;;;;5011197;28;20193;-71
2021/10/28 06:21:04;;;;;;;63.17;27.63;;;;;;;;;;5017068;28;20258;-71
2021/10/28 06:23:29;;;;;;;62.07;27.07;;;;;;;;;;5009853;28;20194;-71
2021/10/28 06:25:55;;;;;;;60.23;26.83;;;;;;;;;;5017092;28;20335;-71
2021/10/28 06:28:20;;;;;;;68.40;28.67;;;;;;;;;;5009329;28;20186;-72
2021/10/28 06:30:45;;;;;;;62.23;26.63;;;;;;;;;;5017002;28;20316;-71
2021/10/28 06:33:15;;;;;;;61.17;26.43;;;;;;;;;;5012080;28;20194;-71
2021/10/28 06:35:43;;;;;;;66.53;27.50;;;;;;;;;;5015808;28;20653;-71
2021/10/28 06:38:08;;;;;;;67.97;28.13;;;;;;;;;;5010960;28;20217;-71
2021/10/28 06:40:36;;;;;;;68.87;29.10;;;;;;;;;;5013820;28;20194;-72
2021/10/28 06:43:02;;;;;;;70.00;29.00;;;;;;;;;;5019045;28;20201;-72
2021/10/28 06:45:28;;;;;;;71.47;29.10;;;;;;;;;;5010217;28;20189;-72
2021/10/28 06:47:53;;;;;;;61.90;27.20;;;;;;;;;;5018896;28;20201;-72
2021/10/28 06:50:20;;;;;;;60.87;27.13;;;;;;;;;;5009170;28;20192;-72
2021/10/28 07:03:29;;;;;;;67.67;28.63;;;;;;;;;;5015465;28;20263;-72
2021/10/28 07:06:01;;;;;;;64.40;28.13;;;;;;;;;;5010812;28;20217;-71
2021/10/28 07:08:26;;;;;;;70.80;29.00;;;;;;;;;;5017492;28;20193;-72
2021/10/28 07:10:54;;;;;;;65.70;28.67;;;;;;;;;;5010285;28;20229;-72
2021/10/28 07:13:24;;;;;;;72.43;30.47;;;;;;;;;;5017483;28;20251;-72
2021/10/28 07:15:55;;;;;;;70.10;30.90;;;;;;;;;;5009052;28;20190;-72
2021/10/28 07:26:16;;;;;;;77.20;30.27;;;;;;;;;;5011690;28;20579;-71
2021/10/28 07:29:03;;;;;;;79.83;30.13;;;;;;;;;;5017592;28;20205;-71
2021/10/28 07:39:47;;;;;;;64.53;28.07;;;;;;;;;;5017108;28;20297;-72
2021/10/28 07:58:28;;;;;;;72.63;29.53;;;;;;;;;;5009354;28;20206;-72
2021/10/28 08:13:29;;;;;;;66.90;29.43;;;;;;;;;;5006522;28;20253;-72
2021/10/28 08:14:58;;;;;;;62.60;29.23;;;;;;;;;;5006675;28;20213;-73
2021/10/28 08:20:19;;;;;;;55.50;26.50;;;;;;;;;;4992313;28;20549;-73
2021/10/28 08:23:00;;;;;;;63.95;28.38;;;;;;;;;;5014125;28;20225;-72
2021/10/28 08:30:53;;;;;;;57.83;26.27;;;;;;;;;;5008177;28;20200;-73
2021/10/28 08:33:21;;;;;;;55.10;25.95;;;;;;;;;;5011312;28;20194;-73
2021/10/28 08:36:06;;;;;;;51.38;25.75;;;;;;;;;;5006630;28;20186;-73
2021/10/28 08:38:31;;;;;;;54.95;25.73;;;;;;;;;;5015019;28;20174;-73
2021/10/28 08:40:57;;;;;;;42.63;23.17;;;;;;;;;;5002842;28;20194;-74
2021/10/28 08:43:26;;;;;;;44.85;24.65;;;;;;;;;;5013513;28;20261;-73
2021/10/28 08:45:53;;;;;;;133.52;69.47;;;;;;;;;;5006775;28;20362;-73
2021/10/28 08:48:22;;;;;;;47.22;23.90;;;;;;;;;;5014504;28;20652;-72
2021/10/28 08:50:52;;;;;;;44.53;22.88;;;;;;;;;;5010218;28;20301;-72
2021/10/28 08:53:32;;;;;;;39.00;20.95;;;;;;;;;;5016393;28;20277;-73
2021/10/28 08:56:00;;;;;;;42.95;21.73;;;;;;;;;;5009255;28;20630;-72
2021/10/28 09:23:57;;;;;;;28.48;14.60;;;;;;;;;;5007506;28;20336;-74
2021/10/28 09:26:42;;;;;;;28.05;15.32;;;;;;;;;;5017269;28;20198;-74
2021/10/28 09:32:37;;;;;;;22.98;15.02;;;;;;;;;;5015185;28;20204;-73
2021/10/28 09:51:46;;;;;;;22.95;12.38;;;;;;;;;;5019549;28;20760;-74
2021/10/28 09:59:57;;;;;;;17.30;11.90;;;;;;;;;;5010948;28;20321;-73
2021/10/28 10:02:41;;;;;;;20.83;11.45;;;;;;;;;;5015002;28;20194;-73
2021/10/28 10:05:15;;;;;;;18.63;11.05;;;;;;;;;;5010237;28;20192;-74
2021/10/28 10:07:42;;;;;;;20.52;10.52;;;;;;;;;;5016206;28;20303;-74
2021/10/28 10:10:08;;;;;;;19.98;10.70;;;;;;;;;;5010876;28;20246;-74
2021/10/28 10:12:36;;;;;;;14.65;10.60;;;;;;;;;;5020501;28;20205;-73
2021/10/28 10:15:02;;;;;;;16.27;10.02;;;;;;;;;;5010008;28;20210;-72
2021/10/28 10:17:28;;;;;;;16.83;10.63;;;;;;;;;;5020914;28;20280;-72
2021/10/28 10:19:56;;;;;;;16.10;9.98;;;;;;;;;;5014824;28;20202;-73
2021/10/28 10:22:45;;;;;;;15.35;10.20;;;;;;;;;;5013276;28;20194;-72
2021/10/28 11:29:05;;;;;;;13.10;9.35;;;;;;;;;;5019330;28;20228;-73
2021/10/28 12:19:51;;;;;;;16.95;10.52;;;;;;;;;;5007973;28;20202;-72
2021/10/28 12:43:23;;;;;;;14.18;9.98;;;;;;;;;;5013625;28;20238;-72
2021/10/28 12:46:12;;;;;;;13.10;8.65;;;;;;;;;;5020758;28;20206;-74
2021/10/28 13:03:04;;;;;;;13.77;7.53;;;;;;;;;;5020748;28;20212;-72
2021/10/28 13:06:09;;;;;;;12.40;7.55;;;;;;;;;;5014449;28;20201;-72
2021/10/28 13:36:07;;;;;;;8.77;5.07;;;;;;;;;;5011845;28;20228;-74
2021/10/28 13:50:11;;;;;;;7.00;4.80;;;;;;;;;;5018004;28;20259;-72
2021/10/28 13:57:24;;;;;;;7.43;3.92;;;;;;;;;;5008996;28;20213;-73
2021/10/28 15:29:05;;;;;;;6.78;3.17;;;;;;;;;;5008440;28;20597;-71
2021/10/28 15:31:58;;;;;;;6.93;3.20;;;;;;;;;;5001235;28;20834;-72
2021/10/28 15:37:11;;;;;;;7.53;3.70;;;;;;;;;;5002123;28;20609;-71
2021/10/28 15:48:25;;;;;;;6.65;3.33;;;;;;;;;;4998490;28;20224;-71
2021/10/28 16:23:18;;;;;;;10.15;4.82;;;;;;;;;;5018281;28;20348;-72
2021/10/28 16:25:46;;;;;;;9.10;4.43;;;;;;;;;;5011828;28;20265;-72
2021/10/28 16:28:15;;;;;;;9.55;4.82;;;;;;;;;;5020584;28;20266;-72
2021/10/28 16:30:40;;;;;;;10.25;4.60;;;;;;;;;;5008592;28;20624;-71
2021/10/28 16:33:06;;;;;;;9.38;4.38;;;;;;;;;;5023483;28;20182;-72
2021/10/28 16:35:31;;;;;;;8.05;4.70;;;;;;;;;;5012048;28;20186;-72
2021/10/28 16:37:57;;;;;;;10.73;5.20;;;;;;;;;;5021421;28;20531;-72
2021/10/28 16:40:22;;;;;;;9.05;5.25;;;;;;;;;;5009020;28;24297;-71
2021/10/28 16:42:48;;;;;;;8.13;5.00;;;;;;;;;;5020587;28;20190;-71
2021/10/28 16:45:13;;;;;;;8.38;5.05;;;;;;;;;;5017185;28;20194;-71
2021/10/28 16:47:38;;;;;;;9.63;5.20;;;;;;;;;;5012607;28;20608;-71
2021/10/28 16:50:05;;;;;;;13.77;5.50;;;;;;;;;;5021417;28;20285;-71
2021/10/28 16:52:30;;;;;;;11.45;5.63;;;;;;;;;;5012079;28;20202;-71
2021/10/28 16:54:56;;;;;;;10.30;5.35;;;;;;;;;;5019639;28;20272;-71
2021/10/28 16:57:22;;;;;;;8.00;4.57;;;;;;;;;;5008718;28;20687;-71
2021/10/28 16:59:48;;;;;;;10.25;5.15;;;;;;;;;;5018831;28;20190;-71
2021/10/28 17:02:13;;;;;;;7.05;4.75;;;;;;;;;;5011880;28;20608;-71
2021/10/28 17:04:39;;;;;;;9.25;4.95;;;;;;;;;;5019545;28;20178;-71
2021/10/28 17:07:04;;;;;;;10.60;5.03;;;;;;;;;;5011610;28;20210;-71
2021/10/28 17:09:30;;;;;;;7.55;4.68;;;;;;;;;;5017148;28;20245;-71
2021/10/28 17:11:55;;;;;;;7.97;4.45;;;;;;;;;;5008293;28;20642;-72
2021/10/28 17:14:21;;;;;;;7.97;5.32;;;;;;;;;;5014938;28;20241;-71
2021/10/28 17:16:47;;;;;;;9.45;5.70;;;;;;;;;;5014348;28;20200;-71
2021/10/28 17:19:14;;;;;;;7.68;5.10;;;;;;;;;;5008451;28;20687;-71
2021/10/28 17:21:40;;;;;;;9.38;5.40;;;;;;;;;;5018810;28;21364;-70
2021/10/28 17:24:08;;;;;;;8.25;5.45;;;;;;;;;;5011832;28;20296;-70
2021/10/28 17:26:34;;;;;;;10.15;6.03;;;;;;;;;;5017535;28;20210;-71
2021/10/28 17:29:02;;;;;;;9.98;5.53;;;;;;;;;;5010124;28;20205;-71
2021/10/28 17:31:30;;;;;;;12.13;6.05;;;;;;;;;;5014871;28;20267;-71
2021/10/28 17:33:56;;;;;;;7.90;5.93;;;;;;;;;;5013462;28;20182;-71
2021/10/28 17:36:23;;;;;;;11.13;5.88;;;;;;;;;;5018746;28;20727;-71
2021/10/28 17:38:48;;;;;;;9.98;6.45;;;;;;;;;;5011016;28;20194;-71
2021/10/28 17:41:14;;;;;;;10.95;6.95;;;;;;;;;;5019917;28;20204;-71
2021/10/28 17:43:43;;;;;;;9.82;6.63;;;;;;;;;;5012525;28;20619;-71
2021/10/28 17:46:11;;;;;;;11.32;6.20;;;;;;;;;;5017503;28;20543;-71
2021/10/28 17:48:36;;;;;;;10.63;7.13;;;;;;;;;;5014313;28;20616;-71
2021/10/28 17:51:02;;;;;;;10.50;6.82;;;;;;;;;;5010563;28;20190;-71
2021/10/28 17:53:27;;;;;;;10.82;6.65;;;;;;;;;;5020017;28;20208;-71
2021/10/28 17:55:52;;;;;;;12.38;7.93;;;;;;;;;;5009192;28;20210;-71
2021/10/28 17:58:18;;;;;;;12.80;7.32;;;;;;;;;;5018345;28;20186;-71
2021/10/28 18:00:44;;;;;;;11.40;7.43;;;;;;;;;;5009696;28;20202;-72
2021/10/28 18:03:09;;;;;;;13.40;8.00;;;;;;;;;;5016605;28;20190;-71
2021/10/28 18:05:36;;;;;;;11.60;8.23;;;;;;;;;;5008105;28;20194;-72
2021/10/28 18:08:03;;;;;;;11.52;8.30;;;;;;;;;;5015661;28;20363;-72
2021/10/28 18:10:29;;;;;;;11.93;8.45;;;;;;;;;;5009136;28;20273;-71
2021/10/28 18:12:54;;;;;;;13.05;8.55;;;;;;;;;;5010319;28;20222;-71
2021/10/28 18:15:20;;;;;;;11.85;8.25;;;;;;;;;;5009500;28;20190;-71
2021/10/28 18:17:45;;;;;;;12.77;8.43;;;;;;;;;;5019117;28;20186;-72
2021/10/28 18:20:11;;;;;;;14.93;9.05;;;;;;;;;;5020018;28;20236;-71
2021/10/28 18:22:40;;;;;;;14.77;8.88;;;;;;;;;;5009377;28;20201;-71
2021/10/28 18:25:07;;;;;;;15.30;9.57;;;;;;;;;;5019631;28;20178;-71
2021/10/28 18:27:33;;;;;;;11.88;9.32;;;;;;;;;;5009647;28;20331;-71
2021/10/28 18:30:00;;;;;;;12.15;9.50;;;;;;;;;;5020590;28;20186;-71
2021/10/28 18:32:26;;;;;;;12.98;9.43;;;;;;;;;;5003405;28;20652;-72
2021/10/28 18:34:52;;;;;;;15.43;9.98;;;;;;;;;;5017817;28;20190;-72
2021/10/28 18:37:20;;;;;;;14.88;8.70;;;;;;;;;;5004599;28;20661;-73
2021/10/28 18:39:45;;;;;;;13.27;9.13;;;;;;;;;;5014802;28;20182;-72
2021/10/28 18:42:10;;;;;;;17.70;10.13;;;;;;;;;;5000515;28;20532;-72
2021/10/28 18:44:36;;;;;;;14.63;9.82;;;;;;;;;;5014107;28;20552;-72
2021/10/28 18:47:01;;;;;;;14.23;9.73;;;;;;;;;;5002077;28;20242;-72
2021/10/28 18:49:27;;;;;;;14.82;9.63;;;;;;;;;;5006273;28;20273;-72
2021/10/28 18:51:52;;;;;;;17.27;11.18;;;;;;;;;;5015221;28;20205;-74
2021/10/28 18:54:18;;;;;;;20.67;11.23;;;;;;;;;;5005964;28;20178;-73
2021/10/28 18:56:48;;;;;;;17.60;11.05;;;;;;;;;;5013887;28;20316;-73
2021/10/28 18:59:15;;;;;;;16.20;11.60;;;;;;;;;;5010175;28;20202;-73
2021/10/28 19:01:41;;;;;;;13.77;11.02;;;;;;;;;;5017362;28;20230;-72
2021/10/28 19:04:06;;;;;;;17.52;10.85;;;;;;;;;;5007608;28;20252;-72
2021/10/28 19:06:32;;;;;;;15.45;10.75;;;;;;;;;;5016821;28;20205;-73
2021/10/28 19:08:57;;;;;;;16.58;11.23;;;;;;;;;;4312787;28;10000750;-72
2021/10/28 19:11:24;;;;;;;16.00;10.02;;;;;;;;;;5008363;28;20201;-72
2021/10/28 19:13:50;;;;;;;17.60;11.20;;;;;;;;;;4997661;28;20190;-73
2021/10/28 19:16:16;;;;;;;19.42;11.50;;;;;;;;;;5011429;28;20676;-72
2021/10/28 19:18:43;;;;;;;17.17;10.98;;;;;;;;;;5000079;28;20224;-72
2021/10/28 19:21:09;;;;;;;17.00;12.73;;;;;;;;;;5011876;28;20193;-72
2021/10/28 19:23:35;;;;;;;21.02;12.63;;;;;;;;;;5009134;28;20688;-72
2021/10/28 19:26:00;;;;;;;18.05;12.02;;;;;;;;;;5004352;28;20197;-73
2021/10/28 19:28:26;;;;;;;18.73;12.85;;;;;;;;;;5013569;28;20194;-72
2021/10/28 19:30:56;;;;;;;18.30;13.23;;;;;;;;;;5001016;28;20752;-72
2021/10/28 19:33:28;;;;;;;20.40;13.07;;;;;;;;;;5009476;28;20320;-72
2021/10/28 19:35:58;;;;;;;21.70;13.40;;;;;;;;;;4999211;28;20212;-72
2021/10/28 19:46:10;;;;;;;17.55;12.40;;;;;;;;;;5002542;28;20224;-72
2021/10/28 19:48:36;;;;;;;20.85;13.68;;;;;;;;;;5010980;28;20243;-73
2021/10/28 19:51:02;;;;;;;24.58;14.73;;;;;;;;;;4999039;28;20194;-72
2021/10/28 19:53:29;;;;;;;23.00;14.65;;;;;;;;;;5011630;28;20186;-72
2021/10/28 19:55:56;;;;;;;21.92;14.57;;;;;;;;;;4999018;28;20217;-72
2021/10/28 19:58:24;;;;;;;19.95;13.85;;;;;;;;;;5009692;28;20162;-73
2021/10/28 20:00:59;;;;;;;21.70;14.52;;;;;;;;;;5005376;28;20186;-72
2021/10/28 20:03:45;;;;;;;21.92;13.65;;;;;;;;;;5009439;28;20192;-72
2021/10/28 20:14:19;;;;;;;24.33;16.45;;;;;;;;;;5009741;28;21319;-72
2021/10/28 20:22:12;;;;;;;24.42;16.02;;;;;;;;;;5002652;28;20197;-72
2021/10/28 20:24:38;;;;;;;23.13;16.35;;;;;;;;;;5010027;28;20201;-72
2021/10/28 20:27:03;;;;;;;27.58;16.33;;;;;;;;;;5011258;28;20206;-72
2021/10/28 20:29:29;;;;;;;23.23;15.75;;;;;;;;;;5002684;28;20193;-71
2021/10/28 20:31:54;;;;;;;26.15;15.95;;;;;;;;;;5006245;28;20186;-72
2021/10/28 20:34:32;;;;;;;26.75;16.20;;;;;;;;;;5002279;28;20209;-73
2021/10/28 20:37:10;;;;;;;27.60;17.48;;;;;;;;;;5013852;28;20252;-72
2021/10/28 20:39:43;;;;;;;25.52;16.27;;;;;;;;;;5001566;28;20319;-73
2021/10/28 20:42:15;;;;;;;26.63;17.02;;;;;;;;;;5007204;28;20198;-72
2021/10/28 20:44:41;;;;;;;24.70;15.98;;;;;;;;;;4995998;28;20218;-72
2021/10/28 20:47:07;;;;;;;24.83;16.40;;;;;;;;;;5014809;28;20217;-72
2021/10/28 20:49:33;;;;;;;24.63;17.00;;;;;;;;;;5007544;28;20668;-72
2021/10/28 20:51:58;;;;;;;28.40;16.70;;;;;;;;;;5007377;28;20194;-71
2021/10/28 20:54:24;;;;;;;25.13;16.98;;;;;;;;;;5006580;28;20345;-71
2021/10/28 20:56:51;;;;;;;26.20;17.15;;;;;;;;;;5015692;28;20578;-71
2021/10/28 20:59:18;;;;;;;30.45;17.23;;;;;;;;;;5006294;28;20668;-71
2021/10/28 21:01:43;;;;;;;25.13;16.27;;;;;;;;;;5017352;28;20201;-71
2021/10/28 21:04:09;;;;;;;29.02;17.75;;;;;;;;;;5013111;28;20791;-71
2021/10/28 21:06:35;;;;;;;29.25;18.15;;;;;;;;;;5009683;28;20232;-72
2021/10/28 21:09:01;;;;;;;26.02;16.83;;;;;;;;;;5014790;28;20705;-71
2021/10/28 21:11:27;;;;;;;29.52;18.30;;;;;;;;;;5001175;28;21265;-72
2021/10/28 21:13:53;;;;;;;26.70;18.08;;;;;;;;;;5013706;28;20208;-72
2021/10/28 21:16:19;;;;;;;28.92;18.30;;;;;;;;;;5001790;28;20240;-71
2021/10/28 21:18:44;;;;;;;29.70;17.50;;;;;;;;;;5016638;28;20555;-71
2021/10/28 21:21:10;;;;;;;28.45;17.23;;;;;;;;;;5008161;28;20523;-71
2021/10/28 21:23:35;;;;;;;31.83;17.95;;;;;;;;;;5015953;28;20240;-72
2021/10/28 21:26:01;;;;;;;29.20;18.30;;;;;;;;;;5024396;28;20205;-72
2021/10/28 21:28:27;;;;;;;25.65;16.75;;;;;;;;;;5013726;28;20191;-73
2021/10/28 21:30:52;;;;;;;28.42;18.05;;;;;;;;;;5009332;28;20189;-73
2021/10/28 21:33:18;;;;;;;30.33;18.77;;;;;;;;;;5020032;28;20197;-73
2021/10/28 21:35:44;;;;;;;28.40;16.52;;;;;;;;;;5012471;28;20252;-72
2021/10/28 21:38:09;;;;;;;30.02;18.02;;;;;;;;;;5004413;28;20194;-71
2021/10/28 21:40:35;;;;;;;29.73;17.83;;;;;;;;;;5018493;28;20217;-71
2021/10/28 21:43:00;;;;;;;28.10;16.90;;;;;;;;;;5013549;28;20197;-71
2021/10/28 21:45:26;;;;;;;24.55;17.50;;;;;;;;;;5011084;28;20198;-73
2021/10/28 21:47:52;;;;;;;30.67;19.10;;;;;;;;;;5012235;28;20777;-71
2021/10/28 21:50:19;;;;;;;32.75;18.75;;;;;;;;;;5020454;28;20293;-72
2021/10/28 21:52:50;;;;;;;33.10;18.48;;;;;;;;;;5013232;28;20550;-71
2021/10/28 22:06:11;;;;;;;32.97;19.30;;;;;;;;;;4980647;28;20423;-71
2021/10/28 22:25:02;;;;;;;31.63;19.00;;;;;;;;;;5008800;28;20236;-71
2021/10/28 22:27:29;;;;;;;31.25;18.50;;;;;;;;;;5018710;28;20309;-71
2021/10/28 22:29:58;;;;;;;29.70;18.93;;;;;;;;;;5012435;28;20178;-71
2021/10/28 22:32:24;;;;;;;29.92;19.13;;;;;;;;;;5020812;28;20359;-71
2021/10/28 22:34:49;;;;;;;31.77;18.98;;;;;;;;;;5013014;28;20193;-71
2021/10/28 22:40:06;;;;;;;31.05;18.75;;;;;;;;;;5013395;28;20202;-72
2021/10/28 22:42:33;;;;;;;29.15;18.85;;;;;;;;;;5019451;28;20235;-72
2021/10/28 22:44:59;;;;;;;30.67;18.27;;;;;;;;;;5014400;28;20239;-72
2021/10/28 22:47:24;;;;;;;28.80;17.75;;;;;;;;;;5021818;28;20653;-71
2021/10/28 22:49:52;;;;;;;29.90;18.35;;;;;;;;;;5014374;28;20197;-71
2021/10/28 22:52:26;;;;;;;30.55;18.48;;;;;;;;;;5022372;28;20231;-72
2021/10/28 22:55:07;;;;;;;33.55;19.08;;;;;;;;;;5020724;28;20335;-72
2021/10/28 22:57:42;;;;;;;32.50;19.45;;;;;;;;;;5019589;28;20208;-72
2021/10/28 23:00:14;;;;;;;30.33;18.92;;;;;;;;;;5018602;28;20223;-74
2021/10/28 23:02:54;;;;;;;32.28;19.20;;;;;;;;;;5014730;28;20273;-72
2021/10/28 23:05:54;;;;;;;30.60;17.98;;;;;;;;;;5016814;28;20266;-72
2021/10/28 23:08:33;;;;;;;29.50;18.50;;;;;;;;;;5019008;28;20226;-72
2021/10/28 23:21:29;;;;;;;33.17;19.15;;;;;;;;;;5012957;28;20189;-70
2021/10/28 23:23:54;;;;;;;29.08;18.55;;;;;;;;;;5018946;28;20266;-71
2021/10/28 23:26:19;;;;;;;31.63;18.83;;;;;;;;;;5018538;28;20206;-71
2021/10/28 23:28:45;;;;;;;30.77;19.80;;;;;;;;;;5012827;28;20424;-71
2021/10/28 23:31:10;;;;;;;34.28;20.00;;;;;;;;;;5022182;28;20194;-71
2021/10/28 23:33:35;;;;;;;33.17;19.70;;;;;;;;;;5008269;28;20281;-70
2021/10/28 23:36:01;;;;;;;32.50;19.52;;;;;;;;;;5023245;28;20245;-71
2021/10/28 23:38:27;;;;;;;33.13;18.60;;;;;;;;;;5010003;28;20959;-71
2021/10/28 23:40:52;;;;;;;30.65;19.02;;;;;;;;;;5022970;28;20529;-71